createdAt,value
2023-05-09T00:02:00.261Z,11.67
2023-05-09T00:04:26.741Z,11.70
2023-05-09T00:06:53.173Z,11.56
2023-05-09T00:09:19.613Z,11.52
2023-05-09T00:11:46.075Z,11.45
2023-05-09T00:14:13.936Z,11.53
2023-05-09T00:16:40.799Z,11.46
2023-05-09T00:19:07.494Z,11.49
2023-05-09T00:21:34.427Z,11.31
2023-05-09T00:24:01.298Z,11.29
2023-05-09T00:26:28.054Z,11.25
2023-05-09T00:28:54.472Z,11.36
2023-05-09T00:31:21.140Z,11.30
2023-05-09T00:33:47.585Z,11.22
2023-05-09T00:36:14.009Z,11.18
2023-05-09T00:38:40.412Z,11.15
2023-05-09T00:41:06.885Z,11.00
2023-05-09T00:43:33.339Z,11.18
2023-05-09T00:45:59.764Z,11.01
2023-05-09T00:48:26.309Z,10.99
2023-05-09T00:50:53.155Z,11.02
2023-05-09T00:53:20.727Z,10.93
2023-05-09T00:55:47.345Z,10.91
2023-05-09T00:58:13.958Z,10.94
2023-05-09T01:00:40.735Z,10.81
2023-05-09T01:03:07.624Z,10.85
2023-05-09T01:05:51.528Z,10.86
2023-05-09T01:08:26.885Z,10.83
2023-05-09T01:11:27.418Z,10.87
2023-05-09T01:14:15.552Z,10.74
2023-05-09T01:16:49.969Z,10.76
2023-05-09T01:19:25.401Z,10.74
2023-05-09T01:21:52.981Z,10.60
2023-05-09T01:24:33.693Z,10.63
2023-05-09T01:27:15.700Z,10.63
2023-05-09T01:29:55.260Z,10.61
2023-05-09T01:32:26.291Z,10.61
2023-05-09T01:34:54.367Z,10.50
2023-05-09T01:37:28.679Z,10.46
2023-05-09T01:40:00.286Z,10.43
2023-05-09T01:42:31.894Z,10.44
2023-05-09T01:44:59.300Z,10.41
2023-05-09T01:47:26.947Z,10.43
2023-05-09T01:49:55.036Z,10.42
2023-05-09T01:52:23.188Z,10.54
2023-05-09T01:54:51.328Z,10.44
2023-05-09T01:57:19.764Z,10.37
2023-05-09T01:59:47.815Z,10.31
2023-05-09T02:02:14.983Z,10.39
2023-05-09T02:04:43.429Z,10.33
2023-05-09T02:07:11.576Z,10.27
2023-05-09T02:09:38.267Z,10.26
2023-05-09T02:12:04.860Z,10.21
2023-05-09T02:14:31.692Z,10.35
2023-05-09T02:16:58.511Z,10.21
2023-05-09T02:19:24.988Z,10.14
2023-05-09T02:21:51.416Z,10.19
2023-05-09T02:24:17.855Z,10.16
2023-05-09T02:26:44.406Z,10.08
2023-05-09T02:29:11.789Z,9.97
2023-05-09T02:31:41.713Z,10.15
2023-05-09T02:34:09.671Z,10.04
2023-05-09T02:36:36.564Z,9.93
2023-05-09T02:39:03.080Z,10.00
2023-05-09T02:41:30.076Z,9.96
2023-05-09T02:43:56.508Z,9.94
2023-05-09T02:46:23.033Z,9.91
2023-05-09T02:48:49.488Z,9.90
2023-05-09T02:51:15.966Z,9.84
2023-05-09T02:53:42.490Z,9.81
2023-05-09T02:56:10.828Z,9.76
2023-05-09T02:58:37.239Z,9.71
2023-05-09T03:01:04.143Z,9.71
2023-05-09T03:03:33.894Z,9.66
2023-05-09T03:06:02.086Z,9.61
2023-05-09T03:08:28.485Z,9.62
2023-05-09T03:10:55.019Z,9.68
2023-05-09T03:13:21.780Z,9.56
2023-05-09T03:18:14.702Z,9.61
2023-05-09T03:20:41.127Z,9.47
2023-05-09T03:23:07.603Z,9.60
2023-05-09T03:25:34.022Z,9.53
2023-05-09T03:28:00.468Z,9.46
2023-05-09T03:30:27.190Z,9.55
2023-05-09T03:32:55.372Z,9.45
2023-05-09T03:35:21.931Z,9.48
2023-05-09T03:37:48.369Z,9.41
2023-05-09T03:40:14.956Z,9.29
2023-05-09T03:42:48.653Z,9.35
2023-05-09T03:45:15.327Z,9.29
2023-05-09T03:47:43.140Z,9.28
2023-05-09T03:50:10.814Z,9.22
2023-05-09T03:52:37.474Z,9.26
2023-05-09T03:55:05.866Z,9.23
2023-05-09T03:57:35.756Z,9.25
2023-05-09T04:00:04.878Z,9.25
2023-05-09T04:02:40.572Z,9.20
2023-05-09T04:05:08.205Z,9.36
2023-05-09T04:07:37.528Z,9.37
2023-05-09T04:10:04.489Z,9.29
2023-05-09T04:12:30.988Z,9.30
2023-05-09T04:14:57.437Z,9.36
2023-05-09T04:17:25.172Z,9.26
2023-05-09T04:19:51.986Z,9.26
2023-05-09T04:22:19.103Z,9.35
2023-05-09T04:24:45.552Z,9.36
2023-05-09T04:27:12.007Z,9.36
2023-05-09T04:29:38.959Z,9.38
2023-05-09T04:32:05.517Z,9.38
2023-05-09T04:34:32.059Z,9.53
2023-05-09T04:37:03.165Z,9.51
2023-05-09T04:39:30.983Z,9.81
2023-05-09T04:42:05.048Z,9.79
2023-05-09T04:44:31.859Z,9.87
2023-05-09T04:46:59.819Z,9.98
2023-05-09T04:49:27.564Z,10.06
2023-05-09T04:51:53.997Z,10.20
2023-05-09T04:54:21.338Z,10.42
2023-05-09T04:56:50.892Z,10.48
2023-05-09T04:59:18.186Z,10.50
2023-05-09T05:01:46.148Z,10.47
2023-05-09T05:04:12.942Z,10.62
2023-05-09T05:06:39.433Z,10.81
2023-05-09T05:09:06.516Z,11.03
2023-05-09T05:11:33.041Z,11.15
2023-05-09T05:13:59.834Z,11.29
2023-05-09T05:16:26.414Z,11.14
2023-05-09T05:18:53.046Z,11.22
2023-05-09T05:21:20.072Z,11.30
2023-05-09T05:23:46.536Z,11.39
2023-05-09T05:26:14.251Z,11.44
2023-05-09T05:28:40.863Z,11.57
2023-05-09T05:31:07.418Z,11.68
2023-05-09T05:33:33.891Z,11.98
2023-05-09T05:36:01.433Z,12.02
2023-05-09T05:38:27.935Z,12.00
2023-05-09T05:40:56.343Z,12.19
2023-05-09T05:43:24.314Z,12.42
2023-05-09T05:45:51.110Z,12.53
2023-05-09T05:48:20.915Z,12.72
2023-05-09T05:50:47.708Z,12.68
2023-05-09T05:53:16.751Z,12.72
2023-05-09T05:55:45.869Z,12.75
2023-05-09T05:58:12.390Z,13.23
2023-05-09T06:00:39.452Z,13.21
2023-05-09T06:03:06.623Z,13.36
2023-05-09T06:05:43.544Z,13.58
2023-05-09T06:08:10.918Z,13.64
2023-05-09T06:10:37.321Z,13.80
2023-05-09T06:13:03.796Z,13.62
2023-05-09T06:15:30.905Z,13.91
2023-05-09T06:17:57.490Z,14.13
2023-05-09T06:20:23.990Z,14.19
2023-05-09T06:22:50.566Z,14.28
2023-05-09T06:25:17.241Z,14.41
2023-05-09T06:27:44.652Z,14.56
2023-05-09T06:30:24.574Z,14.64
2023-05-09T06:32:51.812Z,14.81
2023-05-09T06:35:18.375Z,14.81
2023-05-09T06:37:46.519Z,15.10
2023-05-09T06:40:14.221Z,15.34
2023-05-09T06:42:40.798Z,15.24
2023-05-09T06:45:07.573Z,15.17
2023-05-09T06:47:34.022Z,15.04
2023-05-09T06:50:00.457Z,15.18
2023-05-09T06:52:27.036Z,15.15
2023-05-09T06:54:54.181Z,15.11
2023-05-09T06:57:20.661Z,15.28
2023-05-09T06:59:47.164Z,15.27
2023-05-09T07:02:13.648Z,15.35
2023-05-09T07:04:40.168Z,15.39
2023-05-09T07:07:06.616Z,15.29
2023-05-09T07:09:33.137Z,15.53
2023-05-09T07:12:00.920Z,15.24
2023-05-09T07:14:27.499Z,15.48
2023-05-09T07:16:56.526Z,15.68
2023-05-09T07:19:28.737Z,15.65
2023-05-09T07:21:55.143Z,15.64
2023-05-09T07:24:21.533Z,15.91
2023-05-09T07:26:47.947Z,15.89
2023-05-09T07:29:14.373Z,15.85
2023-05-09T07:31:41.132Z,15.93
2023-05-09T07:34:07.629Z,16.16
2023-05-09T07:36:35.468Z,16.55
2023-05-09T07:39:02.037Z,16.35
2023-05-09T07:41:28.450Z,16.36
2023-05-09T07:43:54.860Z,16.30
2023-05-09T07:46:21.319Z,16.46
2023-05-09T07:48:47.905Z,16.68
2023-05-09T07:51:14.378Z,16.87
2023-05-09T07:53:40.759Z,16.67
2023-05-09T07:56:07.864Z,16.85
2023-05-09T07:58:34.286Z,17.20
2023-05-09T08:01:00.694Z,17.24
2023-05-09T08:03:27.220Z,16.34
2023-05-09T08:05:55.755Z,16.45
2023-05-09T08:08:22.858Z,16.84
2023-05-09T08:10:49.310Z,16.69
2023-05-09T08:13:15.815Z,16.76
2023-05-09T08:15:42.311Z,16.80
2023-05-09T08:18:08.793Z,17.11
2023-05-09T08:20:36.142Z,17.33
2023-05-09T08:23:02.582Z,17.28
2023-05-09T08:25:29.652Z,17.31
2023-05-09T08:27:56.110Z,17.50
2023-05-09T08:30:22.807Z,17.36
2023-05-09T08:32:49.400Z,17.65
2023-05-09T08:35:16.115Z,17.86
2023-05-09T08:37:42.812Z,17.82
2023-05-09T08:40:10.062Z,18.02
2023-05-09T08:42:37.668Z,18.08
2023-05-09T08:45:11.390Z,17.85
2023-05-09T08:47:38.691Z,17.90
2023-05-09T08:50:06.047Z,17.55
2023-05-09T08:52:33.523Z,17.66
2023-05-09T08:55:01.651Z,17.62
2023-05-09T08:57:28.266Z,17.88
2023-05-09T08:59:55.576Z,17.55
2023-05-09T09:02:22.339Z,17.85
2023-05-09T09:04:48.792Z,17.79
2023-05-09T09:07:15.952Z,18.27
2023-05-09T09:09:47.237Z,18.40
2023-05-09T09:12:16.101Z,18.47
2023-05-09T09:14:48.005Z,18.20
2023-05-09T09:17:19.551Z,17.98
2023-05-09T09:19:49.508Z,17.82
2023-05-09T09:22:18.986Z,18.09
2023-05-09T09:24:45.405Z,18.25
2023-05-09T09:27:11.818Z,18.40
2023-05-09T09:29:38.767Z,18.76
2023-05-09T09:32:06.618Z,18.70
2023-05-09T09:34:33.243Z,18.78
2023-05-09T09:36:59.722Z,18.20
2023-05-09T09:39:26.139Z,18.44
2023-05-09T09:41:52.568Z,18.02
2023-05-09T09:44:20.899Z,18.40
2023-05-09T09:46:55.272Z,18.51
2023-05-09T09:49:26.320Z,18.20
2023-05-09T09:51:57.775Z,18.42
2023-05-09T09:54:27.660Z,18.63
2023-05-09T09:56:54.980Z,18.62
2023-05-09T09:59:24.945Z,18.77
2023-05-09T10:02:07.174Z,18.94
2023-05-09T10:04:36.387Z,19.29
2023-05-09T10:07:05.881Z,18.84
2023-05-09T10:09:33.816Z,19.29
2023-05-09T10:12:06.160Z,19.11
2023-05-09T10:14:35.446Z,19.24
2023-05-09T10:17:04.357Z,19.04
2023-05-09T10:19:31.843Z,19.39
2023-05-09T10:22:04.305Z,19.58
2023-05-09T10:25:01.432Z,19.82
2023-05-09T10:27:30.991Z,19.23
